sensor_id;sensor_type;location;lat;lon;timestamp;temperature;humidity
35059;DHT22;21646;48.274;14.292;2022-08-07T00:01:41;24.60;59.20
35059;DHT22;21646;48.274;14.292;2022-08-07T00:04:06;24.60;59.20
35059;DHT22;21646;48.274;14.292;2022-08-07T00:06:32;24.60;59.20
35059;DHT22;21646;48.274;14.292;2022-08-07T00:08:58;24.60;59.20
35059;DHT22;21646;48.274;14.292;2022-08-07T00:11:24;24.60;59.20
35059;DHT22;21646;48.274;14.292;2022-08-07T00:13:49;24.60;59.30
35059;DHT22;21646;48.274;14.292;2022-08-07T00:16:15;24.60;59.40
35059;DHT22;21646;48.274;14.292;2022-08-07T00:18:40;24.60;59.40
35059;DHT22;21646;48.274;14.292;2022-08-07T00:21:06;24.60;59.20
35059;DHT22;21646;48.274;14.292;2022-08-07T00:23:33;24.60;58.70
35059;DHT22;21646;48.274;14.292;2022-08-07T00:25:59;24.60;58.10
35059;DHT22;21646;48.274;14.292;2022-08-07T00:28:25;24.60;57.60
35059;DHT22;21646;48.274;14.292;2022-08-07T00:30:51;24.60;57.00
35059;DHT22;21646;48.274;14.292;2022-08-07T00:33:17;24.60;56.70
35059;DHT22;21646;48.274;14.292;2022-08-07T00:35:42;24.60;56.00
35059;DHT22;21646;48.274;14.292;2022-08-07T00:38:08;24.60;55.40
35059;DHT22;21646;48.274;14.292;2022-08-07T00:40:34;24.60;55.20
35059;DHT22;21646;48.274;14.292;2022-08-07T00:42:59;24.60;54.80
35059;DHT22;21646;48.274;14.292;2022-08-07T00:45:25;24.60;54.70
35059;DHT22;21646;48.274;14.292;2022-08-07T00:47:50;24.60;54.40
35059;DHT22;21646;48.274;14.292;2022-08-07T00:50:16;24.60;54.30
35059;DHT22;21646;48.274;14.292;2022-08-07T00:52:42;24.60;54.00
35059;DHT22;21646;48.274;14.292;2022-08-07T00:55:08;24.60;53.90
35059;DHT22;21646;48.274;14.292;2022-08-07T00:57:34;24.60;53.70
35059;DHT22;21646;48.274;14.292;2022-08-07T01:00:00;24.60;53.50
35059;DHT22;21646;48.274;14.292;2022-08-07T01:02:26;24.60;53.30
35059;DHT22;21646;48.274;14.292;2022-08-07T01:04:52;24.70;53.40
35059;DHT22;21646;48.274;14.292;2022-08-07T01:07:20;24.70;53.20
35059;DHT22;21646;48.274;14.292;2022-08-07T01:09:46;24.70;53.10
35059;DHT22;21646;48.274;14.292;2022-08-07T01:12:15;24.70;52.90
35059;DHT22;21646;48.274;14.292;2022-08-07T01:14:41;24.70;52.70
35059;DHT22;21646;48.274;14.292;2022-08-07T01:17:07;24.70;52.70
35059;DHT22;21646;48.274;14.292;2022-08-07T01:19:33;24.70;52.60
35059;DHT22;21646;48.274;14.292;2022-08-07T01:21:59;24.70;52.50
35059;DHT22;21646;48.274;14.292;2022-08-07T01:24:26;24.70;52.20
35059;DHT22;21646;48.274;14.292;2022-08-07T01:26:53;24.70;52.10
35059;DHT22;21646;48.274;14.292;2022-08-07T01:29:19;24.70;52.10
35059;DHT22;21646;48.274;14.292;2022-08-07T01:31:46;24.70;52.20
35059;DHT22;21646;48.274;14.292;2022-08-07T01:34:12;24.70;52.00
35059;DHT22;21646;48.274;14.292;2022-08-07T01:36:38;24.70;52.00
35059;DHT22;21646;48.274;14.292;2022-08-07T01:39:04;24.70;52.00
35059;DHT22;21646;48.274;14.292;2022-08-07T01:41:29;24.70;51.90
35059;DHT22;21646;48.274;14.292;2022-08-07T01:43:55;24.70;52.00
35059;DHT22;21646;48.274;14.292;2022-08-07T01:46:21;24.70;51.80
35059;DHT22;21646;48.274;14.292;2022-08-07T01:48:47;24.70;51.60
35059;DHT22;21646;48.274;14.292;2022-08-07T01:51:13;24.70;51.40
35059;DHT22;21646;48.274;14.292;2022-08-07T01:53:43;24.70;51.40
35059;DHT22;21646;48.274;14.292;2022-08-07T01:56:14;24.70;51.40
35059;DHT22;21646;48.274;14.292;2022-08-07T01:58:59;24.70;51.40
35059;DHT22;21646;48.274;14.292;2022-08-07T02:01:26;24.80;51.40
35059;DHT22;21646;48.274;14.292;2022-08-07T02:03:55;24.80;51.30
35059;DHT22;21646;48.274;14.292;2022-08-07T02:06:22;24.70;51.20
35059;DHT22;21646;48.274;14.292;2022-08-07T02:08:49;24.80;51.10
35059;DHT22;21646;48.274;14.292;2022-08-07T02:11:16;24.80;51.00
35059;DHT22;21646;48.274;14.292;2022-08-07T02:13:41;24.80;51.00
35059;DHT22;21646;48.274;14.292;2022-08-07T02:16:08;24.80;50.90
35059;DHT22;21646;48.274;14.292;2022-08-07T02:18:35;24.70;50.90
35059;DHT22;21646;48.274;14.292;2022-08-07T02:21:02;24.80;50.90
35059;DHT22;21646;48.274;14.292;2022-08-07T02:23:28;24.80;51.50
35059;DHT22;21646;48.274;14.292;2022-08-07T02:25:54;24.70;50.80
35059;DHT22;21646;48.274;14.292;2022-08-07T02:28:21;24.80;50.90
35059;DHT22;21646;48.274;14.292;2022-08-07T02:30:47;24.70;50.80
35059;DHT22;21646;48.274;14.292;2022-08-07T02:33:14;24.70;50.80
35059;DHT22;21646;48.274;14.292;2022-08-07T02:35:41;24.80;50.60
35059;DHT22;21646;48.274;14.292;2022-08-07T02:38:06;24.80;50.70
35059;DHT22;21646;48.274;14.292;2022-08-07T02:40:33;24.80;50.80
35059;DHT22;21646;48.274;14.292;2022-08-07T02:42:59;24.70;50.60
35059;DHT22;21646;48.274;14.292;2022-08-07T02:45:27;24.80;50.70
35059;DHT22;21646;48.274;14.292;2022-08-07T02:47:52;24.80;50.70
35059;DHT22;21646;48.274;14.292;2022-08-07T02:50:18;24.70;50.60
35059;DHT22;21646;48.274;14.292;2022-08-07T02:52:55;24.70;51.20
35059;DHT22;21646;48.274;14.292;2022-08-07T02:55:28;24.80;50.70
35059;DHT22;21646;48.274;14.292;2022-08-07T02:57:54;24.70;50.70
35059;DHT22;21646;48.274;14.292;2022-08-07T03:00:23;24.80;50.70
35059;DHT22;21646;48.274;14.292;2022-08-07T03:02:49;24.80;50.70
35059;DHT22;21646;48.274;14.292;2022-08-07T03:05:17;24.80;50.70
35059;DHT22;21646;48.274;14.292;2022-08-07T03:07:43;24.70;50.60
35059;DHT22;21646;48.274;14.292;2022-08-07T03:10:09;24.70;50.60
35059;DHT22;21646;48.274;14.292;2022-08-07T03:12:35;24.70;50.60
35059;DHT22;21646;48.274;14.292;2022-08-07T03:15:01;24.80;50.60
35059;DHT22;21646;48.274;14.292;2022-08-07T03:17:27;24.70;50.50
35059;DHT22;21646;48.274;14.292;2022-08-07T03:19:53;24.70;50.50
35059;DHT22;21646;48.274;14.292;2022-08-07T03:22:19;24.70;50.50
35059;DHT22;21646;48.274;14.292;2022-08-07T03:24:46;24.70;50.50
35059;DHT22;21646;48.274;14.292;2022-08-07T03:27:12;24.70;50.50
35059;DHT22;21646;48.274;14.292;2022-08-07T03:29:40;24.70;50.50
35059;DHT22;21646;48.274;14.292;2022-08-07T03:32:07;24.60;50.50
35059;DHT22;21646;48.274;14.292;2022-08-07T03:34:35;24.60;50.40
35059;DHT22;21646;48.274;14.292;2022-08-07T03:37:02;24.60;50.50
35059;DHT22;21646;48.274;14.292;2022-08-07T03:39:28;24.60;50.40
35059;DHT22;21646;48.274;14.292;2022-08-07T03:41:55;24.60;50.40
35059;DHT22;21646;48.274;14.292;2022-08-07T03:44:22;24.60;50.40
35059;DHT22;21646;48.274;14.292;2022-08-07T03:46:48;24.50;50.40
35059;DHT22;21646;48.274;14.292;2022-08-07T03:49:14;24.50;50.50
35059;DHT22;21646;48.274;14.292;2022-08-07T03:51:40;24.50;50.60
35059;DHT22;21646;48.274;14.292;2022-08-07T03:54:08;24.50;50.70
35059;DHT22;21646;48.274;14.292;2022-08-07T03:56:33;24.50;50.50
35059;DHT22;21646;48.274;14.292;2022-08-07T03:59:04;24.50;50.50
35059;DHT22;21646;48.274;14.292;2022-08-07T04:01:31;24.50;50.50
35059;DHT22;21646;48.274;14.292;2022-08-07T04:03:58;24.40;50.40
35059;DHT22;21646;48.274;14.292;2022-08-07T04:06:24;24.40;50.40
35059;DHT22;21646;48.274;14.292;2022-08-07T04:08:50;24.40;50.40
35059;DHT22;21646;48.274;14.292;2022-08-07T04:11:15;24.40;50.30
35059;DHT22;21646;48.274;14.292;2022-08-07T04:13:41;24.40;50.20
35059;DHT22;21646;48.274;14.292;2022-08-07T04:16:07;24.40;50.80
35059;DHT22;21646;48.274;14.292;2022-08-07T04:18:33;24.40;50.20
35059;DHT22;21646;48.274;14.292;2022-08-07T04:20:58;24.40;50.20
35059;DHT22;21646;48.274;14.292;2022-08-07T04:23:24;24.40;50.20
35059;DHT22;21646;48.274;14.292;2022-08-07T04:25:50;24.40;50.20
35059;DHT22;21646;48.274;14.292;2022-08-07T04:28:17;24.40;50.20
35059;DHT22;21646;48.274;14.292;2022-08-07T04:30:45;24.40;50.10
35059;DHT22;21646;48.274;14.292;2022-08-07T04:33:11;24.40;50.00
35059;DHT22;21646;48.274;14.292;2022-08-07T04:35:37;24.40;49.90
35059;DHT22;21646;48.274;14.292;2022-08-07T04:38:03;24.40;50.00
35059;DHT22;21646;48.274;14.292;2022-08-07T04:40:29;24.40;50.10
35059;DHT22;21646;48.274;14.292;2022-08-07T04:42:55;24.40;50.20
35059;DHT22;21646;48.274;14.292;2022-08-07T04:45:21;24.50;50.40
35059;DHT22;21646;48.274;14.292;2022-08-07T04:47:53;24.50;50.50
35059;DHT22;21646;48.274;14.292;2022-08-07T04:55:25;24.50;50.80
35059;DHT22;21646;48.274;14.292;2022-08-07T05:00:56;24.50;50.70
35059;DHT22;21646;48.274;14.292;2022-08-07T05:03:24;24.50;50.70
35059;DHT22;21646;48.274;14.292;2022-08-07T05:06:13;24.60;50.80
35059;DHT22;21646;48.274;14.292;2022-08-07T05:08:47;24.50;50.90
35059;DHT22;21646;48.274;14.292;2022-08-07T05:11:23;24.60;50.70
35059;DHT22;21646;48.274;14.292;2022-08-07T05:13:59;24.60;50.50
35059;DHT22;21646;48.274;14.292;2022-08-07T05:16:26;24.60;50.20
35059;DHT22;21646;48.274;14.292;2022-08-07T05:18:55;24.60;50.00
35059;DHT22;21646;48.274;14.292;2022-08-07T05:21:24;24.60;49.90
35059;DHT22;21646;48.274;14.292;2022-08-07T05:23:52;24.60;49.80
35059;DHT22;21646;48.274;14.292;2022-08-07T05:26:20;24.60;49.90
35059;DHT22;21646;48.274;14.292;2022-08-07T05:28:47;24.60;49.80
35059;DHT22;21646;48.274;14.292;2022-08-07T05:31:14;24.60;49.60
35059;DHT22;21646;48.274;14.292;2022-08-07T05:33:40;24.60;49.40
35059;DHT22;21646;48.274;14.292;2022-08-07T05:36:07;24.60;49.60
35059;DHT22;21646;48.274;14.292;2022-08-07T05:38:34;24.70;49.70
35059;DHT22;21646;48.274;14.292;2022-08-07T05:41:02;24.70;49.40
35059;DHT22;21646;48.274;14.292;2022-08-07T05:43:27;24.70;49.30
35059;DHT22;21646;48.274;14.292;2022-08-07T05:45:53;24.70;49.30
35059;DHT22;21646;48.274;14.292;2022-08-07T05:48:19;24.80;49.10
35059;DHT22;21646;48.274;14.292;2022-08-07T05:50:45;24.80;49.00
35059;DHT22;21646;48.274;14.292;2022-08-07T05:53:11;24.90;48.90
35059;DHT22;21646;48.274;14.292;2022-08-07T05:55:37;24.90;48.80
35059;DHT22;21646;48.274;14.292;2022-08-07T05:58:03;24.90;48.80
35059;DHT22;21646;48.274;14.292;2022-08-07T06:00:30;25.00;48.80
35059;DHT22;21646;48.274;14.292;2022-08-07T06:02:57;25.00;48.70
35059;DHT22;21646;48.274;14.292;2022-08-07T06:05:24;25.10;48.50
35059;DHT22;21646;48.274;14.292;2022-08-07T06:07:57;25.10;48.50
35059;DHT22;21646;48.274;14.292;2022-08-07T06:10:23;25.20;48.40
35059;DHT22;21646;48.274;14.292;2022-08-07T06:12:49;25.20;48.30
35059;DHT22;21646;48.274;14.292;2022-08-07T06:15:15;25.30;48.10
35059;DHT22;21646;48.274;14.292;2022-08-07T06:17:42;25.30;48.10
35059;DHT22;21646;48.274;14.292;2022-08-07T06:20:08;25.40;48.00
35059;DHT22;21646;48.274;14.292;2022-08-07T06:22:34;25.40;48.00
35059;DHT22;21646;48.274;14.292;2022-08-07T06:25:00;25.50;47.70
35059;DHT22;21646;48.274;14.292;2022-08-07T06:27:26;25.50;47.60
35059;DHT22;21646;48.274;14.292;2022-08-07T06:29:51;25.50;47.70
35059;DHT22;21646;48.274;14.292;2022-08-07T06:32:17;25.50;47.30
35059;DHT22;21646;48.274;14.292;2022-08-07T06:34:43;25.60;47.20
35059;DHT22;21646;48.274;14.292;2022-08-07T06:37:08;25.60;47.00
35059;DHT22;21646;48.274;14.292;2022-08-07T06:39:34;25.60;46.90
35059;DHT22;21646;48.274;14.292;2022-08-07T06:42:03;25.70;46.80
35059;DHT22;21646;48.274;14.292;2022-08-07T06:44:30;25.70;46.70
35059;DHT22;21646;48.274;14.292;2022-08-07T06:46:56;25.80;46.50
35059;DHT22;21646;48.274;14.292;2022-08-07T06:49:22;25.80;46.40
35059;DHT22;21646;48.274;14.292;2022-08-07T06:51:47;25.80;46.40
35059;DHT22;21646;48.274;14.292;2022-08-07T06:54:14;25.90;46.30
35059;DHT22;21646;48.274;14.292;2022-08-07T06:56:41;25.90;46.80
35059;DHT22;21646;48.274;14.292;2022-08-07T06:59:16;25.90;46.30
35059;DHT22;21646;48.274;14.292;2022-08-07T07:01:44;26.00;46.40
35059;DHT22;21646;48.274;14.292;2022-08-07T07:04:11;26.00;46.40
35059;DHT22;21646;48.274;14.292;2022-08-07T07:06:37;26.10;46.20
35059;DHT22;21646;48.274;14.292;2022-08-07T07:09:19;26.10;45.90
35059;DHT22;21646;48.274;14.292;2022-08-07T07:14:31;26.30;45.10
35059;DHT22;21646;48.274;14.292;2022-08-07T07:16:58;26.40;44.80
35059;DHT22;21646;48.274;14.292;2022-08-07T07:19:32;26.40;45.10
35059;DHT22;21646;48.274;14.292;2022-08-07T07:22:00;26.50;44.40
35059;DHT22;21646;48.274;14.292;2022-08-07T07:24:26;26.50;44.30
35059;DHT22;21646;48.274;14.292;2022-08-07T07:26:52;26.50;44.10
35059;DHT22;21646;48.274;14.292;2022-08-07T07:29:20;26.40;44.00
35059;DHT22;21646;48.274;14.292;2022-08-07T07:31:47;26.40;44.20
35059;DHT22;21646;48.274;14.292;2022-08-07T07:34:15;26.40;44.20
35059;DHT22;21646;48.274;14.292;2022-08-07T07:36:41;26.40;44.10
35059;DHT22;21646;48.274;14.292;2022-08-07T07:39:08;26.40;44.10
35059;DHT22;21646;48.274;14.292;2022-08-07T07:41:34;26.30;44.00
35059;DHT22;21646;48.274;14.292;2022-08-07T07:44:00;26.30;44.10
35059;DHT22;21646;48.274;14.292;2022-08-07T07:46:27;26.30;44.30
35059;DHT22;21646;48.274;14.292;2022-08-07T07:48:54;26.30;44.40
35059;DHT22;21646;48.274;14.292;2022-08-07T07:51:21;26.30;44.50
35059;DHT22;21646;48.274;14.292;2022-08-07T07:53:47;26.30;44.80
35059;DHT22;21646;48.274;14.292;2022-08-07T07:56:13;26.40;45.00
35059;DHT22;21646;48.274;14.292;2022-08-07T07:58:39;26.40;45.20
35059;DHT22;21646;48.274;14.292;2022-08-07T08:01:06;26.50;45.10
35059;DHT22;21646;48.274;14.292;2022-08-07T08:03:32;26.60;45.00
35059;DHT22;21646;48.274;14.292;2022-08-07T08:05:58;26.70;45.10
35059;DHT22;21646;48.274;14.292;2022-08-07T08:08:27;26.90;45.20
35059;DHT22;21646;48.274;14.292;2022-08-07T08:10:53;27.10;45.30
35059;DHT22;21646;48.274;14.292;2022-08-07T08:13:19;27.20;44.80
35059;DHT22;21646;48.274;14.292;2022-08-07T08:15:46;27.50;44.50
35059;DHT22;21646;48.274;14.292;2022-08-07T08:18:12;27.60;44.20
35059;DHT22;21646;48.274;14.292;2022-08-07T08:20:39;27.80;44.00
35059;DHT22;21646;48.274;14.292;2022-08-07T08:23:08;27.90;43.60
35059;DHT22;21646;48.274;14.292;2022-08-07T08:25:52;28.10;43.20
35059;DHT22;21646;48.274;14.292;2022-08-07T08:28:32;28.20;43.00
35059;DHT22;21646;48.274;14.292;2022-08-07T08:30:59;28.30;43.00
35059;DHT22;21646;48.274;14.292;2022-08-07T08:33:28;28.40;42.90
35059;DHT22;21646;48.274;14.292;2022-08-07T08:35:56;28.50;42.40
35059;DHT22;21646;48.274;14.292;2022-08-07T08:38:24;28.50;41.80
35059;DHT22;21646;48.274;14.292;2022-08-07T08:40:58;28.50;41.60
35059;DHT22;21646;48.274;14.292;2022-08-07T08:53:55;28.50;41.90
35059;DHT22;21646;48.274;14.292;2022-08-07T08:56:25;28.40;42.10
35059;DHT22;21646;48.274;14.292;2022-08-07T09:01:23;28.40;42.10
35059;DHT22;21646;48.274;14.292;2022-08-07T09:06:36;28.50;42.40
35059;DHT22;21646;48.274;14.292;2022-08-07T09:11:53;28.60;42.20
35059;DHT22;21646;48.274;14.292;2022-08-07T09:14:33;28.70;42.10
35059;DHT22;21646;48.274;14.292;2022-08-07T09:17:07;28.70;42.60
35059;DHT22;21646;48.274;14.292;2022-08-07T09:22:14;28.80;41.90
35059;DHT22;21646;48.274;14.292;2022-08-07T09:37:34;28.90;41.40
35059;DHT22;21646;48.274;14.292;2022-08-07T09:40:23;28.80;41.30
35059;DHT22;21646;48.274;14.292;2022-08-07T09:45:39;28.80;42.40
35059;DHT22;21646;48.274;14.292;2022-08-07T09:53:21;29.00;41.90
35059;DHT22;21646;48.274;14.292;2022-08-07T10:16:20;29.50;41.10
35059;DHT22;21646;48.274;14.292;2022-08-07T10:21:44;29.50;41.10
35059;DHT22;21646;48.274;14.292;2022-08-07T10:26:50;29.60;40.90
35059;DHT22;21646;48.274;14.292;2022-08-07T10:32:14;29.60;40.90
35059;DHT22;21646;48.274;14.292;2022-08-07T10:42:31;29.80;40.70
35059;DHT22;21646;48.274;14.292;2022-08-07T10:45:08;29.90;40.50
35059;DHT22;21646;48.274;14.292;2022-08-07T10:50:48;30.10;39.70
35059;DHT22;21646;48.274;14.292;2022-08-07T10:53:29;30.10;39.50
35059;DHT22;21646;48.274;14.292;2022-08-07T10:56:31;30.20;39.60
35059;DHT22;21646;48.274;14.292;2022-08-07T11:03:44;30.20;39.90
35059;DHT22;21646;48.274;14.292;2022-08-07T11:06:15;30.30;39.80
35059;DHT22;21646;48.274;14.292;2022-08-07T11:08:48;30.30;39.70
35059;DHT22;21646;48.274;14.292;2022-08-07T11:11:20;30.40;39.90
35059;DHT22;21646;48.274;14.292;2022-08-07T11:14:00;30.50;39.70
35059;DHT22;21646;48.274;14.292;2022-08-07T11:16:35;30.60;39.40
35059;DHT22;21646;48.274;14.292;2022-08-07T11:24:40;30.90;38.40
35059;DHT22;21646;48.274;14.292;2022-08-07T11:27:26;30.90;38.30
35059;DHT22;21646;48.274;14.292;2022-08-07T11:29:56;30.90;38.20
35059;DHT22;21646;48.274;14.292;2022-08-07T11:34:53;31.10;38.10
35059;DHT22;21646;48.274;14.292;2022-08-07T11:42:38;31.30;37.60
35059;DHT22;21646;48.274;14.292;2022-08-07T11:45:20;31.40;37.70
35059;DHT22;21646;48.274;14.292;2022-08-07T11:47:58;31.40;37.70
35059;DHT22;21646;48.274;14.292;2022-08-07T11:58:14;31.80;36.70
35059;DHT22;21646;48.274;14.292;2022-08-07T12:00:49;31.90;36.50
35059;DHT22;21646;48.274;14.292;2022-08-07T12:03:29;31.90;36.30
35059;DHT22;21646;48.274;14.292;2022-08-07T12:06:11;32.00;36.30
35059;DHT22;21646;48.274;14.292;2022-08-07T12:08:43;32.10;35.90
35059;DHT22;21646;48.274;14.292;2022-08-07T12:11:18;32.20;35.80
35059;DHT22;21646;48.274;14.292;2022-08-07T12:13:47;32.20;35.50
35059;DHT22;21646;48.274;14.292;2022-08-07T12:16:21;32.20;35.20
35059;DHT22;21646;48.274;14.292;2022-08-07T12:18:54;32.20;35.40
35059;DHT22;21646;48.274;14.292;2022-08-07T12:21:25;32.10;35.30
35059;DHT22;21646;48.274;14.292;2022-08-07T12:23:58;32.10;35.30
35059;DHT22;21646;48.274;14.292;2022-08-07T12:26:27;32.10;35.20
35059;DHT22;21646;48.274;14.292;2022-08-07T12:33:48;32.10;35.20
35059;DHT22;21646;48.274;14.292;2022-08-07T12:36:15;32.20;35.10
35059;DHT22;21646;48.274;14.292;2022-08-07T12:38:42;32.20;35.30
35059;DHT22;21646;48.274;14.292;2022-08-07T12:41:09;32.30;35.10
35059;DHT22;21646;48.274;14.292;2022-08-07T12:43:35;32.40;35.40
35059;DHT22;21646;48.274;14.292;2022-08-07T12:46:12;32.60;35.60
35059;DHT22;21646;48.274;14.292;2022-08-07T12:48:55;32.80;35.90
35059;DHT22;21646;48.274;14.292;2022-08-07T12:51:25;33.30;35.90
35059;DHT22;21646;48.274;14.292;2022-08-07T12:54:11;33.80;35.50
35059;DHT22;21646;48.274;14.292;2022-08-07T12:56:44;34.40;34.90
35059;DHT22;21646;48.274;14.292;2022-08-07T12:59:11;34.90;34.10
35059;DHT22;21646;48.274;14.292;2022-08-07T13:04:20;36.00;32.20
35059;DHT22;21646;48.274;14.292;2022-08-07T13:07:02;36.30;31.70
35059;DHT22;21646;48.274;14.292;2022-08-07T13:22:35;38.30;29.40
35059;DHT22;21646;48.274;14.292;2022-08-07T13:25:03;38.50;28.90
35059;DHT22;21646;48.274;14.292;2022-08-07T13:27:42;38.80;28.50
35059;DHT22;21646;48.274;14.292;2022-08-07T13:30:09;38.90;27.90
35059;DHT22;21646;48.274;14.292;2022-08-07T13:35:31;38.90;27.00
35059;DHT22;21646;48.274;14.292;2022-08-07T13:40:34;38.50;26.90
35059;DHT22;21646;48.274;14.292;2022-08-07T13:43:04;38.30;27.00
35059;DHT22;21646;48.274;14.292;2022-08-07T13:45:31;38.20;27.00
35059;DHT22;21646;48.274;14.292;2022-08-07T13:47:58;38.00;27.10
35059;DHT22;21646;48.274;14.292;2022-08-07T13:50:25;37.70;27.30
35059;DHT22;21646;48.274;14.292;2022-08-07T13:52:52;37.50;27.40
35059;DHT22;21646;48.274;14.292;2022-08-07T13:55:20;37.40;27.90
35059;DHT22;21646;48.274;14.292;2022-08-07T13:58:08;37.30;28.10
35059;DHT22;21646;48.274;14.292;2022-08-07T14:00:51;37.40;28.30
35059;DHT22;21646;48.274;14.292;2022-08-07T14:03:18;37.50;28.50
35059;DHT22;21646;48.274;14.292;2022-08-07T14:05:44;37.70;28.20
35059;DHT22;21646;48.274;14.292;2022-08-07T14:08:10;37.80;28.10
35059;DHT22;21646;48.274;14.292;2022-08-07T14:10:36;38.00;27.60
35059;DHT22;21646;48.274;14.292;2022-08-07T14:13:03;38.00;27.30
35059;DHT22;21646;48.274;14.292;2022-08-07T14:17:58;37.80;27.30
35059;DHT22;21646;48.274;14.292;2022-08-07T14:20:27;37.70;27.20
35059;DHT22;21646;48.274;14.292;2022-08-07T14:22:59;37.60;27.20
35059;DHT22;21646;48.274;14.292;2022-08-07T14:25:27;37.40;27.20
35059;DHT22;21646;48.274;14.292;2022-08-07T14:27:53;37.10;27.30
35059;DHT22;21646;48.274;14.292;2022-08-07T14:30:19;36.90;27.60
35059;DHT22;21646;48.274;14.292;2022-08-07T14:32:47;36.60;27.70
35059;DHT22;21646;48.274;14.292;2022-08-07T14:35:18;36.30;28.00
35059;DHT22;21646;48.274;14.292;2022-08-07T14:37:46;36.10;28.30
35059;DHT22;21646;48.274;14.292;2022-08-07T14:40:15;35.80;28.30
35059;DHT22;21646;48.274;14.292;2022-08-07T14:42:40;35.50;28.50
35059;DHT22;21646;48.274;14.292;2022-08-07T14:45:07;35.20;28.80
35059;DHT22;21646;48.274;14.292;2022-08-07T14:47:36;35.00;29.20
35059;DHT22;21646;48.274;14.292;2022-08-07T14:50:06;34.70;29.40
35059;DHT22;21646;48.274;14.292;2022-08-07T14:52:35;34.50;29.60
35059;DHT22;21646;48.274;14.292;2022-08-07T14:55:03;34.20;29.90
35059;DHT22;21646;48.274;14.292;2022-08-07T14:57:30;34.00;30.30
35059;DHT22;21646;48.274;14.292;2022-08-07T14:59:56;33.50;30.50
35059;DHT22;21646;48.274;14.292;2022-08-07T15:02:22;33.60;30.70
35059;DHT22;21646;48.274;14.292;2022-08-07T15:04:50;33.40;31.20
35059;DHT22;21646;48.274;14.292;2022-08-07T15:07:16;33.30;31.40
35059;DHT22;21646;48.274;14.292;2022-08-07T15:09:43;33.10;31.70
35059;DHT22;21646;48.274;14.292;2022-08-07T15:12:11;33.00;32.10
35059;DHT22;21646;48.274;14.292;2022-08-07T15:14:39;32.90;32.10
35059;DHT22;21646;48.274;14.292;2022-08-07T15:17:10;32.90;32.10
35059;DHT22;21646;48.274;14.292;2022-08-07T15:19:38;32.80;32.20
35059;DHT22;21646;48.274;14.292;2022-08-07T15:22:10;32.50;32.50
35059;DHT22;21646;48.274;14.292;2022-08-07T15:24:37;32.60;33.00
35059;DHT22;21646;48.274;14.292;2022-08-07T15:29:33;32.40;33.10
35059;DHT22;21646;48.274;14.292;2022-08-07T15:32:00;32.40;33.20
35059;DHT22;21646;48.274;14.292;2022-08-07T15:34:28;32.30;33.20
35059;DHT22;21646;48.274;14.292;2022-08-07T15:36:59;32.20;33.40
35059;DHT22;21646;48.274;14.292;2022-08-07T15:39:25;32.20;33.60
35059;DHT22;21646;48.274;14.292;2022-08-07T15:41:58;32.10;33.60
35059;DHT22;21646;48.274;14.292;2022-08-07T15:44:26;32.00;33.70
35059;DHT22;21646;48.274;14.292;2022-08-07T15:46:57;31.90;33.70
35059;DHT22;21646;48.274;14.292;2022-08-07T15:49:27;31.80;33.90
35059;DHT22;21646;48.274;14.292;2022-08-07T15:51:53;31.70;34.00
35059;DHT22;21646;48.274;14.292;2022-08-07T15:54:19;31.70;34.20
35059;DHT22;21646;48.274;14.292;2022-08-07T15:56:46;31.60;34.30
35059;DHT22;21646;48.274;14.292;2022-08-07T15:59:12;31.50;34.50
35059;DHT22;21646;48.274;14.292;2022-08-07T16:01:53;31.50;34.60
35059;DHT22;21646;48.274;14.292;2022-08-07T16:04:20;31.40;34.60
35059;DHT22;21646;48.274;14.292;2022-08-07T16:06:52;31.40;34.80
35059;DHT22;21646;48.274;14.292;2022-08-07T16:09:31;31.30;35.00
35059;DHT22;21646;48.274;14.292;2022-08-07T16:22:36;30.90;35.60
35059;DHT22;21646;48.274;14.292;2022-08-07T16:27:39;30.60;35.90
35059;DHT22;21646;48.274;14.292;2022-08-07T16:30:09;30.60;36.40
35059;DHT22;21646;48.274;14.292;2022-08-07T16:32:44;30.40;36.50
35059;DHT22;21646;48.274;14.292;2022-08-07T16:35:20;30.30;36.80
35059;DHT22;21646;48.274;14.292;2022-08-07T16:37:48;30.20;37.10
35059;DHT22;21646;48.274;14.292;2022-08-07T16:40:33;30.00;37.40
35059;DHT22;21646;48.274;14.292;2022-08-07T16:51:04;29.50;38.60
35059;DHT22;21646;48.274;14.292;2022-08-07T16:53:51;29.40;38.90
35059;DHT22;21646;48.274;14.292;2022-08-07T16:56:33;29.30;39.10
35059;DHT22;21646;48.274;14.292;2022-08-07T16:59:06;29.20;39.30
35059;DHT22;21646;48.274;14.292;2022-08-07T17:07:07;28.80;40.20
35059;DHT22;21646;48.274;14.292;2022-08-07T17:12:24;28.70;40.70
35059;DHT22;21646;48.274;14.292;2022-08-07T17:17:27;28.60;41.10
35059;DHT22;21646;48.274;14.292;2022-08-07T17:19:55;28.50;41.20
35059;DHT22;21646;48.274;14.292;2022-08-07T17:22:26;28.40;41.40
35059;DHT22;21646;48.274;14.292;2022-08-07T17:25:03;28.30;41.60
35059;DHT22;21646;48.274;14.292;2022-08-07T17:32:30;28.10;42.10
35059;DHT22;21646;48.274;14.292;2022-08-07T17:35:11;28.10;42.30
35059;DHT22;21646;48.274;14.292;2022-08-07T17:40:38;27.90;42.50
35059;DHT22;21646;48.274;14.292;2022-08-07T17:43:08;27.90;42.70
35059;DHT22;21646;48.274;14.292;2022-08-07T17:45:39;27.80;42.80
35059;DHT22;21646;48.274;14.292;2022-08-07T17:48:09;27.80;43.00
35059;DHT22;21646;48.274;14.292;2022-08-07T17:53:11;27.70;43.30
35059;DHT22;21646;48.274;14.292;2022-08-07T17:55:45;27.60;43.50
35059;DHT22;21646;48.274;14.292;2022-08-07T17:58:16;27.60;43.60
35059;DHT22;21646;48.274;14.292;2022-08-07T18:00:45;27.60;43.70
35059;DHT22;21646;48.274;14.292;2022-08-07T18:03:30;27.50;43.80
35059;DHT22;21646;48.274;14.292;2022-08-07T18:05:59;27.50;44.00
35059;DHT22;21646;48.274;14.292;2022-08-07T18:11:13;27.40;44.20
35059;DHT22;21646;48.274;14.292;2022-08-07T18:13:59;27.40;44.50
35059;DHT22;21646;48.274;14.292;2022-08-07T18:16:33;27.30;44.40
35059;DHT22;21646;48.274;14.292;2022-08-07T18:19:14;27.30;44.50
35059;DHT22;21646;48.274;14.292;2022-08-07T18:21:48;27.30;44.60
35059;DHT22;21646;48.274;14.292;2022-08-07T18:24:27;27.20;44.70
35059;DHT22;21646;48.274;14.292;2022-08-07T18:27:04;27.20;44.80
35059;DHT22;21646;48.274;14.292;2022-08-07T18:30:06;27.20;45.00
35059;DHT22;21646;48.274;14.292;2022-08-07T18:45:22;27.10;45.60
35059;DHT22;21646;48.274;14.292;2022-08-07T18:58:15;26.90;45.70
35059;DHT22;21646;48.274;14.292;2022-08-07T19:00:48;26.90;45.70
35059;DHT22;21646;48.274;14.292;2022-08-07T19:03:41;26.90;45.80
35059;DHT22;21646;48.274;14.292;2022-08-07T19:06:08;26.90;45.90